Time;durP1;ratioP1;P1;durP2;ratioP2;P2;SDS_P1;SDS_P2;PMS_P1;PMS_P2;Temp;Humidity;BMP_temperature;BMP_pressure;BME280_temperature;BME280_humidity;BME280_pressure;Samples;Min_cycle;Max_cycle;Signal;HPM_P1;HPM_P2
2023/12/29 00:01:46;;;;;;;1.95;1.80;;;;;;;;;;5056415;28;20216;-71
2023/12/29 00:04:13;;;;;;;2.03;1.70;;;;;;;;;;5063084;28;20265;-72
2023/12/29 00:06:40;;;;;;;2.05;1.85;;;;;;;;;;5063574;28;20232;-71
2023/12/29 00:09:07;;;;;;;1.70;1.60;;;;;;;;;;5053376;28;20982;-72
2023/12/29 00:11:33;;;;;;;1.73;1.63;;;;;;;;;;5051492;28;20212;-71
2023/12/29 00:14:00;;;;;;;2.20;1.40;;;;;;;;;;5064680;28;20215;-71
2023/12/29 00:16:28;;;;;;;1.75;1.45;;;;;;;;;;5064358;28;20270;-72
2023/12/29 00:18:54;;;;;;;1.38;1.38;;;;;;;;;;5050266;28;20216;-72
2023/12/29 00:21:21;;;;;;;1.40;1.40;;;;;;;;;;5060970;28;20708;-72
2023/12/29 00:23:49;;;;;;;1.67;1.58;;;;;;;;;;5061038;28;20416;-72
2023/12/29 00:26:16;;;;;;;1.48;1.48;;;;;;;;;;5060611;28;20666;-71
2023/12/29 00:28:43;;;;;;;1.30;1.20;;;;;;;;;;5061710;28;20274;-71
2023/12/29 00:31:09;;;;;;;1.63;1.52;;;;;;;;;;5059529;28;20580;-71
2023/12/29 00:33:36;;;;;;;1.50;1.50;;;;;;;;;;5060416;28;20212;-71
2023/12/29 00:36:02;;;;;;;1.27;1.27;;;;;;;;;;5062518;28;20220;-70
2023/12/29 00:38:28;;;;;;;2.15;1.70;;;;;;;;;;5062246;28;20212;-70
2023/12/29 00:40:56;;;;;;;1.40;1.40;;;;;;;;;;5062595;28;20255;-71
2023/12/29 00:43:22;;;;;;;1.85;1.45;;;;;;;;;;5066058;28;20200;-71
2023/12/29 00:45:49;;;;;;;1.30;1.30;;;;;;;;;;5065221;28;20213;-71
2023/12/29 00:48:15;;;;;;;2.15;1.40;;;;;;;;;;5063066;28;20224;-71
2023/12/29 00:50:41;;;;;;;1.58;1.58;;;;;;;;;;5063349;28;20231;-71
2023/12/29 00:53:07;;;;;;;1.58;1.48;;;;;;;;;;5063354;28;20209;-71
2023/12/29 00:55:34;;;;;;;1.48;1.48;;;;;;;;;;5064316;28;20231;-71
2023/12/29 00:58:01;;;;;;;1.63;1.52;;;;;;;;;;5063385;28;20258;-71
2023/12/29 01:00:27;;;;;;;2.05;1.52;;;;;;;;;;5062086;28;20212;-71
2023/12/29 01:02:54;;;;;;;1.90;1.80;;;;;;;;;;5062415;28;20259;-71
2023/12/29 01:05:20;;;;;;;1.90;1.77;;;;;;;;;;5065688;28;20217;-71
2023/12/29 01:07:47;;;;;;;2.80;1.85;;;;;;;;;;5065683;28;20724;-71
2023/12/29 01:10:13;;;;;;;1.50;1.50;;;;;;;;;;5062848;28;20684;-71
2023/12/29 01:12:39;;;;;;;1.40;1.30;;;;;;;;;;5061964;28;20611;-71
2023/12/29 01:15:07;;;;;;;2.55;2.15;;;;;;;;;;5063260;28;20705;-71
2023/12/29 01:17:33;;;;;;;2.33;1.75;;;;;;;;;;5065754;28;20257;-71
2023/12/29 01:20:00;;;;;;;2.03;1.90;;;;;;;;;;5064874;28;20200;-71
2023/12/29 01:22:26;;;;;;;2.00;1.90;;;;;;;;;;5062237;28;20254;-71
2023/12/29 01:24:53;;;;;;;1.60;1.60;;;;;;;;;;5061918;28;20209;-71
2023/12/29 01:27:19;;;;;;;1.85;1.80;;;;;;;;;;5065090;28;20212;-71
2023/12/29 01:29:45;;;;;;;1.58;1.48;;;;;;;;;;5065085;28;20564;-71
2023/12/29 01:32:13;;;;;;;1.75;1.65;;;;;;;;;;5063535;28;20231;-71
2023/12/29 01:34:39;;;;;;;1.98;1.88;;;;;;;;;;5061482;28;20665;-71
2023/12/29 01:37:05;;;;;;;1.95;1.85;;;;;;;;;;5063111;28;20202;-71
2023/12/29 01:39:32;;;;;;;1.98;1.77;;;;;;;;;;5065198;28;20262;-71
2023/12/29 01:41:58;;;;;;;1.80;1.70;;;;;;;;;;5064761;28;20693;-71
2023/12/29 01:44:24;;;;;;;1.83;1.83;;;;;;;;;;5061455;28;20742;-71
2023/12/29 01:46:52;;;;;;;2.03;1.92;;;;;;;;;;5061560;28;20225;-71
2023/12/29 01:49:20;;;;;;;1.90;1.80;;;;;;;;;;5064353;28;20663;-71
2023/12/29 01:51:49;;;;;;;2.25;1.77;;;;;;;;;;5064899;28;20200;-71
2023/12/29 01:54:16;;;;;;;1.95;1.85;;;;;;;;;;5062251;28;20204;-71
2023/12/29 01:56:43;;;;;;;2.40;2.30;;;;;;;;;;5061306;28;20224;-71
2023/12/29 01:59:09;;;;;;;1.83;1.73;;;;;;;;;;5062706;28;20693;-71
2023/12/29 02:01:36;;;;;;;2.20;2.10;;;;;;;;;;5064707;28;20681;-71
2023/12/29 02:04:02;;;;;;;1.95;1.85;;;;;;;;;;5064202;28;20201;-71
2023/12/29 02:06:30;;;;;;;2.05;1.95;;;;;;;;;;5061159;28;20224;-71
2023/12/29 02:08:57;;;;;;;2.15;2.05;;;;;;;;;;5061168;28;20205;-71
2023/12/29 02:11:24;;;;;;;2.22;2.13;;;;;;;;;;5063916;28;20216;-71
2023/12/29 02:13:50;;;;;;;1.80;1.70;;;;;;;;;;5064761;28;20204;-71
2023/12/29 02:16:17;;;;;;;2.05;1.95;;;;;;;;;;5062061;28;20217;-71
2023/12/29 02:18:46;;;;;;;2.10;2.00;;;;;;;;;;5060962;28;20249;-71
2023/12/29 02:21:13;;;;;;;2.85;2.05;;;;;;;;;;5062288;28;20561;-71
2023/12/29 02:23:41;;;;;;;2.30;2.20;;;;;;;;;;5064124;28;20283;-71
2023/12/29 02:26:11;;;;;;;2.85;2.30;;;;;;;;;;5062666;28;20311;-71
2023/12/29 02:28:38;;;;;;;2.25;2.10;;;;;;;;;;5061005;28;20573;-71
2023/12/29 02:31:07;;;;;;;2.10;1.92;;;;;;;;;;5060681;28;20200;-71
2023/12/29 02:33:34;;;;;;;2.67;1.65;;;;;;;;;;5060812;28;20205;-71
2023/12/29 02:36:02;;;;;;;2.47;1.90;;;;;;;;;;5060530;28;20224;-71
2023/12/29 02:38:29;;;;;;;2.08;1.98;;;;;;;;;;5060552;28;20201;-71
2023/12/29 02:40:55;;;;;;;2.45;2.35;;;;;;;;;;5060455;28;20219;-71
2023/12/29 02:43:23;;;;;;;2.13;2.08;;;;;;;;;;5063168;28;20205;-71
2023/12/29 02:45:49;;;;;;;2.40;2.20;;;;;;;;;;5063829;28;20220;-71
2023/12/29 02:48:16;;;;;;;3.95;2.20;;;;;;;;;;5062247;28;20234;-71
2023/12/29 02:50:42;;;;;;;2.20;2.00;;;;;;;;;;5060356;28;20250;-72
2023/12/29 02:53:08;;;;;;;3.15;2.10;;;;;;;;;;5068507;28;20201;-71
2023/12/29 02:55:35;;;;;;;3.00;2.70;;;;;;;;;;5060178;28;20221;-71
2023/12/29 02:58:01;;;;;;;2.45;2.25;;;;;;;;;;5061225;28;20194;-71
2023/12/29 03:00:28;;;;;;;2.17;2.00;;;;;;;;;;5064836;28;20513;-71
2023/12/29 03:02:55;;;;;;;2.42;2.25;;;;;;;;;;5063931;28;20196;-71
2023/12/29 03:05:21;;;;;;;2.00;1.90;;;;;;;;;;5061106;28;20231;-71
2023/12/29 03:07:47;;;;;;;2.30;2.20;;;;;;;;;;5060235;28;20217;-71
2023/12/29 03:10:14;;;;;;;2.50;2.35;;;;;;;;;;5061247;28;20343;-71
2023/12/29 03:12:40;;;;;;;2.42;2.33;;;;;;;;;;5063384;28;20292;-71
2023/12/29 03:15:06;;;;;;;2.20;2.13;;;;;;;;;;5062957;28;20709;-71
2023/12/29 03:17:34;;;;;;;2.00;2.00;;;;;;;;;;5060050;28;20197;-71
2023/12/29 03:20:00;;;;;;;2.95;2.30;;;;;;;;;;5067302;28;20192;-71
2023/12/29 03:22:27;;;;;;;2.40;2.30;;;;;;;;;;5060617;28;20537;-71
2023/12/29 03:24:53;;;;;;;4.10;2.33;;;;;;;;;;5059916;28;20275;-71
2023/12/29 03:27:19;;;;;;;2.45;2.35;;;;;;;;;;5061654;28;20209;-71
2023/12/29 03:29:45;;;;;;;2.58;2.38;;;;;;;;;;5063409;28;20197;-71
2023/12/29 03:32:12;;;;;;;2.20;2.05;;;;;;;;;;5062611;28;20230;-71
2023/12/29 03:34:39;;;;;;;2.80;2.60;;;;;;;;;;5059493;28;20205;-71
2023/12/29 03:37:05;;;;;;;2.28;2.17;;;;;;;;;;5059763;28;20541;-71
2023/12/29 03:39:35;;;;;;;2.30;2.13;;;;;;;;;;5068064;28;20677;-71
2023/12/29 03:42:01;;;;;;;2.30;2.20;;;;;;;;;;5059849;28;20197;-71
2023/12/29 03:44:27;;;;;;;2.50;2.30;;;;;;;;;;5061938;28;20197;-71
2023/12/29 03:46:54;;;;;;;2.20;2.10;;;;;;;;;;5063530;28;20226;-71
2023/12/29 03:49:21;;;;;;;1.98;1.88;;;;;;;;;;5061321;28;20212;-71
2023/12/29 03:51:48;;;;;;;2.40;2.30;;;;;;;;;;5059751;28;20255;-71
2023/12/29 03:54:14;;;;;;;2.50;2.40;;;;;;;;;;5067760;28;20254;-71
2023/12/29 03:56:41;;;;;;;2.13;1.98;;;;;;;;;;5059508;28;20212;-71
2023/12/29 03:59:07;;;;;;;2.13;2.00;;;;;;;;;;5059563;28;20201;-71
2023/12/29 04:01:34;;;;;;;2.20;2.10;;;;;;;;;;5062508;28;20200;-71
2023/12/29 04:04:00;;;;;;;2.40;2.28;;;;;;;;;;5062625;28;20196;-71
2023/12/29 04:06:26;;;;;;;1.98;1.88;;;;;;;;;;5060595;28;20216;-71
2023/12/29 04:08:54;;;;;;;2.00;1.90;;;;;;;;;;5057200;28;20201;-71
2023/12/29 04:11:20;;;;;;;2.40;2.25;;;;;;;;;;5061248;28;20212;-71
2023/12/29 04:13:46;;;;;;;2.33;2.22;;;;;;;;;;5059743;28;20201;-71
2023/12/29 04:16:13;;;;;;;2.17;1.98;;;;;;;;;;5059189;28;20217;-71
2023/12/29 04:18:39;;;;;;;2.67;2.47;;;;;;;;;;5062767;28;20606;-71
2023/12/29 04:21:05;;;;;;;2.25;2.15;;;;;;;;;;5062632;28;20602;-71
2023/12/29 04:23:32;;;;;;;2.28;2.17;;;;;;;;;;5060333;28;20214;-71
2023/12/29 04:25:59;;;;;;;2.13;2.03;;;;;;;;;;5058992;28;20625;-71
2023/12/29 04:28:25;;;;;;;1.85;1.75;;;;;;;;;;5060817;28;20304;-71
2023/12/29 04:30:52;;;;;;;2.17;2.08;;;;;;;;;;5062554;28;20192;-71
2023/12/29 04:33:18;;;;;;;2.40;2.05;;;;;;;;;;5062008;28;20208;-71
2023/12/29 04:35:44;;;;;;;2.10;2.00;;;;;;;;;;5059066;28;20221;-71
2023/12/29 04:38:11;;;;;;;2.35;2.15;;;;;;;;;;5059186;28;20206;-71
2023/12/29 04:40:37;;;;;;;3.03;2.15;;;;;;;;;;5067400;28;20277;-71
2023/12/29 04:43:05;;;;;;;2.60;2.00;;;;;;;;;;5066087;28;20287;-71
2023/12/29 04:45:31;;;;;;;2.13;1.90;;;;;;;;;;5059637;28;20224;-71
2023/12/29 04:47:57;;;;;;;2.10;2.00;;;;;;;;;;5060652;28;20217;-71
2023/12/29 04:50:24;;;;;;;2.15;2.00;;;;;;;;;;5071062;28;20204;-71
2023/12/29 04:52:50;;;;;;;2.25;2.15;;;;;;;;;;5062783;28;20201;-71
2023/12/29 04:55:16;;;;;;;1.80;1.73;;;;;;;;;;5062582;28;20283;-71
2023/12/29 04:57:42;;;;;;;2.63;2.33;;;;;;;;;;5066113;28;20195;-71
2023/12/29 05:00:11;;;;;;;2.53;2.33;;;;;;;;;;5065819;28;20251;-71
2023/12/29 05:02:37;;;;;;;1.98;1.90;;;;;;;;;;5062819;28;20259;-71
2023/12/29 05:05:04;;;;;;;2.00;1.80;;;;;;;;;;5062352;28;20638;-71
2023/12/29 05:07:30;;;;;;;3.83;2.17;;;;;;;;;;5064429;28;20228;-71
2023/12/29 05:09:56;;;;;;;2.30;2.20;;;;;;;;;;5068614;28;20258;-71
2023/12/29 05:12:23;;;;;;;2.13;2.00;;;;;;;;;;5065731;28;20204;-71
2023/12/29 05:14:49;;;;;;;2.50;2.30;;;;;;;;;;5062229;28;20254;-71
2023/12/29 05:17:16;;;;;;;2.10;2.08;;;;;;;;;;5062665;28;20243;-71
2023/12/29 05:19:43;;;;;;;1.92;1.83;;;;;;;;;;5070615;28;20197;-71
2023/12/29 05:22:09;;;;;;;2.22;2.13;;;;;;;;;;5069411;28;20684;-71
2023/12/29 05:24:35;;;;;;;3.25;2.10;;;;;;;;;;5063166;28;20738;-71
2023/12/29 05:27:01;;;;;;;1.90;1.80;;;;;;;;;;5062232;28;20275;-71
2023/12/29 05:29:28;;;;;;;2.20;2.10;;;;;;;;;;5070112;28;20814;-71
2023/12/29 05:31:54;;;;;;;2.38;2.20;;;;;;;;;;5061753;28;20572;-71
2023/12/29 05:34:21;;;;;;;1.77;1.67;;;;;;;;;;5061990;28;20197;-71
2023/12/29 05:36:48;;;;;;;3.00;2.22;;;;;;;;;;5065296;28;20216;-71
2023/12/29 05:39:14;;;;;;;2.17;2.08;;;;;;;;;;5065220;28;20196;-71
2023/12/29 05:41:40;;;;;;;2.05;2.05;;;;;;;;;;5061896;28;20198;-71
2023/12/29 05:44:07;;;;;;;2.42;2.22;;;;;;;;;;5061801;28;20491;-71
2023/12/29 05:46:33;;;;;;;2.13;2.13;;;;;;;;;;5063436;28;20217;-71
2023/12/29 05:48:59;;;;;;;2.13;1.92;;;;;;;;;;5065023;28;20212;-71
2023/12/29 05:51:27;;;;;;;2.72;2.53;;;;;;;;;;5064057;28;20704;-71
2023/12/29 05:53:53;;;;;;;2.00;2.00;;;;;;;;;;5061577;28;20205;-71
2023/12/29 05:56:19;;;;;;;2.55;2.40;;;;;;;;;;5061127;28;20645;-71
2023/12/29 05:58:45;;;;;;;1.98;1.98;;;;;;;;;;5064213;28;20193;-71
2023/12/29 06:01:12;;;;;;;2.38;2.28;;;;;;;;;;5064736;28;20246;-71
2023/12/29 06:03:38;;;;;;;2.28;2.20;;;;;;;;;;5062453;28;20200;-71
2023/12/29 06:06:05;;;;;;;2.35;2.25;;;;;;;;;;5061113;28;20216;-71
2023/12/29 06:08:32;;;;;;;2.47;2.30;;;;;;;;;;5062385;28;20217;-71
2023/12/29 06:10:58;;;;;;;2.92;2.80;;;;;;;;;;5064136;28;20204;-71
2023/12/29 06:13:25;;;;;;;3.22;3.03;;;;;;;;;;5064391;28;20207;-71
2023/12/29 06:15:51;;;;;;;2.90;2.70;;;;;;;;;;5060904;28;20217;-71
2023/12/29 06:18:17;;;;;;;2.63;2.53;;;;;;;;;;5061109;28;20197;-71
2023/12/29 06:20:43;;;;;;;2.58;2.47;;;;;;;;;;5063462;28;20209;-71
2023/12/29 06:23:10;;;;;;;2.20;2.08;;;;;;;;;;5066333;28;20227;-71
2023/12/29 06:25:39;;;;;;;2.30;2.20;;;;;;;;;;5062178;28;20283;-71
2023/12/29 06:28:06;;;;;;;2.50;2.30;;;;;;;;;;5064266;28;20216;-71
2023/12/29 06:30:32;;;;;;;2.33;2.30;;;;;;;;;;5062764;28;20590;-71
2023/12/29 06:32:58;;;;;;;2.42;2.22;;;;;;;;;;5060670;28;20621;-71
2023/12/29 06:35:25;;;;;;;4.65;2.10;;;;;;;;;;5060366;28;20307;-71
2023/12/29 06:37:51;;;;;;;2.38;2.28;;;;;;;;;;5063972;28;20196;-71
2023/12/29 06:40:17;;;;;;;2.80;2.00;;;;;;;;;;5063804;28;20688;-71
2023/12/29 06:42:45;;;;;;;2.58;2.00;;;;;;;;;;5061408;28;20681;-71
2023/12/29 06:45:11;;;;;;;2.50;2.30;;;;;;;;;;5060237;28;20762;-71
2023/12/29 06:47:37;;;;;;;2.22;2.13;;;;;;;;;;5062039;28;20220;-71
2023/12/29 06:50:04;;;;;;;2.30;2.20;;;;;;;;;;5063933;28;20197;-71
2023/12/29 06:52:33;;;;;;;2.30;2.15;;;;;;;;;;5063142;28;20249;-71
2023/12/29 06:55:00;;;;;;;2.13;1.90;;;;;;;;;;5060263;28;20223;-71
2023/12/29 06:57:27;;;;;;;2.13;2.03;;;;;;;;;;5060119;28;20674;-64
2023/12/29 06:59:54;;;;;;;2.92;2.53;;;;;;;;;;5060024;28;20658;-64
2023/12/29 07:02:20;;;;;;;2.33;2.22;;;;;;;;;;5059995;28;20727;-64
2023/12/29 07:04:47;;;;;;;1.85;1.75;;;;;;;;;;5062319;28;20705;-65
2023/12/29 07:07:13;;;;;;;2.45;2.05;;;;;;;;;;5063308;28;20197;-64
2023/12/29 07:09:40;;;;;;;1.85;1.85;;;;;;;;;;5061803;28;20250;-64
2023/12/29 07:12:07;;;;;;;1.90;1.80;;;;;;;;;;5059852;28;20288;-64
2023/12/29 07:14:33;;;;;;;1.90;1.80;;;;;;;;;;5060570;28;20201;-64
2023/12/29 07:17:01;;;;;;;2.40;2.20;;;;;;;;;;5063617;28;20216;-64
2023/12/29 07:19:33;;;;;;;1.70;1.60;;;;;;;;;;5063690;28;20196;-64
2023/12/29 07:21:59;;;;;;;1.77;1.67;;;;;;;;;;5060215;28;20200;-64
2023/12/29 07:24:26;;;;;;;1.98;1.75;;;;;;;;;;5059711;28;20197;-64
2023/12/29 07:26:52;;;;;;;2.00;1.90;;;;;;;;;;5062763;28;20663;-64
2023/12/29 07:29:19;;;;;;;5.13;4.00;;;;;;;;;;5063143;28;20216;-64
2023/12/29 07:31:45;;;;;;;3.22;2.95;;;;;;;;;;5060861;28;20228;-64
2023/12/29 07:34:14;;;;;;;4.50;3.30;;;;;;;;;;5059450;28;20197;-64
2023/12/29 07:36:40;;;;;;;3.70;2.95;;;;;;;;;;5060732;28;20767;-64
2023/12/29 07:39:07;;;;;;;3.22;2.50;;;;;;;;;;5058288;28;20204;-65
2023/12/29 07:41:33;;;;;;;2.40;2.22;;;;;;;;;;5059762;28;20209;-64
2023/12/29 07:43:59;;;;;;;2.75;2.65;;;;;;;;;;5062950;28;20561;-64
2023/12/29 07:46:26;;;;;;;5.13;3.33;;;;;;;;;;5062833;28;20708;-64
2023/12/29 07:48:52;;;;;;;4.72;4.25;;;;;;;;;;5059910;28;20713;-64
2023/12/29 07:51:20;;;;;;;4.63;4.32;;;;;;;;;;5059807;28;20197;-64
2023/12/29 07:53:47;;;;;;;3.95;3.65;;;;;;;;;;5061651;28;20204;-64
2023/12/29 07:56:13;;;;;;;3.63;3.42;;;;;;;;;;5062977;28;20216;-64
2023/12/29 07:58:40;;;;;;;3.15;2.80;;;;;;;;;;5063179;28;20553;-64
2023/12/29 08:01:06;;;;;;;3.00;2.85;;;;;;;;;;5063083;28;20196;-64
2023/12/29 08:03:32;;;;;;;3.20;3.00;;;;;;;;;;5055442;28;20738;-64
2023/12/29 08:05:58;;;;;;;2.78;2.67;;;;;;;;;;5059274;28;20709;-64
2023/12/29 08:08:26;;;;;;;2.35;2.28;;;;;;;;;;5059450;28;20767;-64
2023/12/29 08:10:52;;;;;;;2.10;2.00;;;;;;;;;;5061764;28;20674;-64
2023/12/29 08:13:18;;;;;;;2.30;2.20;;;;;;;;;;5063011;28;20242;-64
2023/12/29 08:15:44;;;;;;;2.70;1.98;;;;;;;;;;5061110;28;20225;-64
2023/12/29 08:18:11;;;;;;;1.98;1.88;;;;;;;;;;5059364;28;20194;-64
2023/12/29 08:20:37;;;;;;;2.03;1.92;;;;;;;;;;5059559;28;20759;-64
2023/12/29 08:23:03;;;;;;;2.30;2.20;;;;;;;;;;5064491;28;20242;-64
2023/12/29 08:25:31;;;;;;;2.50;2.30;;;;;;;;;;5066582;28;20220;-64
2023/12/29 08:27:57;;;;;;;2.10;2.00;;;;;;;;;;5063505;28;20197;-64
2023/12/29 08:30:23;;;;;;;1.50;1.40;;;;;;;;;;5063158;28;20254;-64
2023/12/29 08:32:50;;;;;;;2.25;2.00;;;;;;;;;;5065303;28;20271;-64
2023/12/29 08:35:16;;;;;;;1.85;1.75;;;;;;;;;;5066553;28;20217;-64
2023/12/29 08:37:42;;;;;;;2.85;2.00;;;;;;;;;;5066009;28;20200;-64
2023/12/29 08:40:09;;;;;;;2.05;1.65;;;;;;;;;;5063319;28;20197;-64
2023/12/29 08:42:37;;;;;;;1.70;1.67;;;;;;;;;;5063565;28;20198;-64
2023/12/29 08:45:04;;;;;;;2.30;2.00;;;;;;;;;;5062678;28;20224;-64
2023/12/29 08:47:31;;;;;;;1.85;1.85;;;;;;;;;;5063199;28;20292;-64
2023/12/29 08:49:57;;;;;;;2.15;2.05;;;;;;;;;;5070832;28;20633;-64
2023/12/29 08:52:23;;;;;;;2.95;2.22;;;;;;;;;;5062801;28;20669;-64
2023/12/29 08:54:49;;;;;;;1.70;1.60;;;;;;;;;;5070667;28;20665;-64
2023/12/29 08:57:15;;;;;;;1.92;1.83;;;;;;;;;;5062691;28;20732;-64
2023/12/29 08:59:43;;;;;;;1.85;1.83;;;;;;;;;;5062807;28;20232;-64
2023/12/29 09:02:09;;;;;;;1.55;1.55;;;;;;;;;;5066328;28;20200;-64
2023/12/29 09:04:35;;;;;;;2.80;1.65;;;;;;;;;;5066066;28;20196;-64
2023/12/29 09:07:04;;;;;;;1.55;1.55;;;;;;;;;;5062860;28;20267;-64
2023/12/29 09:09:30;;;;;;;2.90;1.35;;;;;;;;;;5062491;28;20228;-64
2023/12/29 09:11:56;;;;;;;1.25;1.25;;;;;;;;;;5064456;28;20205;-64
2023/12/29 09:14:23;;;;;;;1.70;1.60;;;;;;;;;;5065650;28;20201;-64
2023/12/29 09:16:50;;;;;;;1.33;1.33;;;;;;;;;;5064609;28;20225;-64
2023/12/29 09:19:17;;;;;;;1.30;1.30;;;;;;;;;;5062492;28;20193;-64
2023/12/29 09:21:43;;;;;;;1.40;1.40;;;;;;;;;;5062394;28;20205;-64
2023/12/29 09:24:09;;;;;;;1.48;1.38;;;;;;;;;;5065503;28;20196;-64
2023/12/29 09:26:35;;;;;;;2.47;1.40;;;;;;;;;;5065656;28;20634;-64
2023/12/29 09:29:01;;;;;;;1.30;1.30;;;;;;;;;;5060004;28;20224;-65
2023/12/29 09:31:28;;;;;;;1.67;1.67;;;;;;;;;;5065888;28;20212;-64
2023/12/29 09:33:56;;;;;;;4.20;1.58;;;;;;;;;;5057775;28;20204;-63
2023/12/29 09:36:22;;;;;;;1.58;1.58;;;;;;;;;;5056917;28;20318;-63
2023/12/29 09:38:49;;;;;;;1.42;1.30;;;;;;;;;;5064506;28;20905;-63
2023/12/29 09:41:16;;;;;;;1.30;1.20;;;;;;;;;;5056088;28;20200;-63
2023/12/29 09:43:42;;;;;;;1.20;1.20;;;;;;;;;;5056238;28;20224;-63
2023/12/29 09:46:09;;;;;;;1.27;1.27;;;;;;;;;;5064084;28;20231;-63
2023/12/29 09:48:37;;;;;;;1.58;1.48;;;;;;;;;;5055493;28;20228;-63
2023/12/29 09:51:05;;;;;;;1.75;1.33;;;;;;;;;;5056607;28;20310;-63
2023/12/29 09:53:31;;;;;;;1.13;1.13;;;;;;;;;;5056035;28;20212;-63
2023/12/29 09:56:00;;;;;;;1.30;1.17;;;;;;;;;;5057491;28;20710;-63
2023/12/29 09:58:27;;;;;;;1.10;1.10;;;;;;;;;;5059671;28;20648;-64
2023/12/29 10:00:53;;;;;;;1.95;1.08;;;;;;;;;;5058032;28;20279;-64
2023/12/29 10:03:20;;;;;;;2.53;1.30;;;;;;;;;;5056023;28;20209;-63
2023/12/29 10:05:51;;;;;;;1.40;1.30;;;;;;;;;;5054497;28;20231;-63
2023/12/29 10:08:19;;;;;;;1.23;1.23;;;;;;;;;;5056734;28;20250;-63
2023/12/29 10:10:49;;;;;;;1.50;1.40;;;;;;;;;;5056096;28;20217;-64
2023/12/29 10:13:15;;;;;;;1.30;1.30;;;;;;;;;;5053777;28;20589;-64
2023/12/29 10:15:43;;;;;;;1.20;1.20;;;;;;;;;;5061494;28;20768;-64
2023/12/29 10:18:15;;;;;;;1.85;1.27;;;;;;;;;;5053292;28;20212;-64
2023/12/29 10:20:45;;;;;;;1.23;1.23;;;;;;;;;;5053188;28;20212;-64
2023/12/29 10:23:13;;;;;;;1.02;1.00;;;;;;;;;;5063338;28;20216;-64
2023/12/29 10:25:40;;;;;;;1.10;1.10;;;;;;;;;;5055277;28;20647;-64
2023/12/29 10:28:07;;;;;;;0.98;0.98;;;;;;;;;;5058078;28;20648;-64
2023/12/29 10:30:33;;;;;;;1.08;1.08;;;;;;;;;;5058524;28;20615;-63
2023/12/29 10:33:00;;;;;;;1.30;1.20;;;;;;;;;;5057130;28;20208;-63
2023/12/29 10:35:27;;;;;;;2.20;1.05;;;;;;;;;;5060013;28;20220;-63
2023/12/29 10:37:53;;;;;;;1.40;1.30;;;;;;;;;;5057762;28;20212;-63
2023/12/29 10:40:20;;;;;;;0.95;0.93;;;;;;;;;;5059364;28;20208;-63
2023/12/29 10:42:54;;;;;;;0.90;0.90;;;;;;;;;;5058517;28;20212;-63
2023/12/29 10:45:20;;;;;;;0.65;0.65;;;;;;;;;;5054367;28;20228;-63
2023/12/29 10:47:47;;;;;;;1.08;1.08;;;;;;;;;;5054974;28;20205;-63
2023/12/29 10:50:13;;;;;;;3.47;0.80;;;;;;;;;;5057955;28;20303;-63
2023/12/29 10:52:42;;;;;;;0.90;0.90;;;;;;;;;;5058404;28;20209;-63
2023/12/29 10:55:09;;;;;;;0.70;0.70;;;;;;;;;;5055443;28;20622;-64
2023/12/29 10:57:35;;;;;;;0.82;0.82;;;;;;;;;;5054857;28;20213;-63
2023/12/29 11:00:03;;;;;;;1.05;1.05;;;;;;;;;;5054431;28;20208;-64
2023/12/29 11:02:29;;;;;;;1.52;1.13;;;;;;;;;;5057765;28;20246;-65
2023/12/29 11:05:02;;;;;;;1.35;1.00;;;;;;;;;;5057047;28;20219;-64
2023/12/29 11:07:32;;;;;;;0.90;0.90;;;;;;;;;;5054777;28;20205;-64
2023/12/29 11:10:00;;;;;;;1.02;1.02;;;;;;;;;;5055596;28;20286;-64
2023/12/29 11:12:27;;;;;;;1.00;1.00;;;;;;;;;;5057696;28;20273;-63
2023/12/29 11:14:53;;;;;;;1.63;0.90;;;;;;;;;;5056728;28;20274;-64
2023/12/29 11:17:21;;;;;;;0.63;0.63;;;;;;;;;;5054268;28;20749;-63
2023/12/29 11:19:48;;;;;;;1.08;1.00;;;;;;;;;;5054119;28;20262;-64
2023/12/29 11:22:15;;;;;;;0.68;0.68;;;;;;;;;;5057523;28;20307;-64
2023/12/29 11:24:41;;;;;;;1.35;0.90;;;;;;;;;;5055528;28;20271;-64
2023/12/29 11:27:07;;;;;;;0.80;0.80;;;;;;;;;;5054168;28;20212;-64
2023/12/29 11:29:34;;;;;;;1.10;0.85;;;;;;;;;;5053693;28;20221;-64
2023/12/29 11:32:02;;;;;;;0.70;0.70;;;;;;;;;;5062438;28;20208;-64
2023/12/29 11:34:34;;;;;;;0.90;0.90;;;;;;;;;;5059229;28;20212;-64
2023/12/29 11:37:11;;;;;;;0.80;0.80;;;;;;;;;;5056786;28;20232;-64
2023/12/29 11:39:39;;;;;;;0.82;0.60;;;;;;;;;;5054325;28;20200;-63
2023/12/29 11:42:10;;;;;;;0.68;0.68;;;;;;;;;;5055610;28;20213;-63
2023/12/29 11:44:36;;;;;;;0.73;0.73;;;;;;;;;;5057464;28;20211;-64
2023/12/29 11:47:03;;;;;;;0.82;0.82;;;;;;;;;;5056215;28;20236;-64
2023/12/29 11:49:51;;;;;;;0.55;0.55;;;;;;;;;;5053597;28;20224;-64
2023/12/29 11:52:33;;;;;;;0.90;0.85;;;;;;;;;;5056958;28;20216;-64
2023/12/29 11:55:07;;;;;;;0.55;0.55;;;;;;;;;;5056749;28;20228;-64
2023/12/29 11:57:35;;;;;;;0.68;0.68;;;;;;;;;;5054885;28;20258;-64
2023/12/29 12:00:01;;;;;;;0.82;0.70;;;;;;;;;;5058650;28;20205;-64
2023/12/29 12:02:28;;;;;;;0.85;0.85;;;;;;;;;;5061163;28;20596;-64
2023/12/29 12:04:56;;;;;;;0.95;0.85;;;;;;;;;;5060982;28;20242;-63
2023/12/29 12:07:37;;;;;;;0.80;0.80;;;;;;;;;;5057706;28;20213;-64
2023/12/29 12:10:19;;;;;;;0.60;0.60;;;;;;;;;;5057610;28;20228;-64
2023/12/29 12:12:45;;;;;;;0.80;0.80;;;;;;;;;;5060243;28;20215;-63
2023/12/29 12:15:26;;;;;;;0.80;0.80;;;;;;;;;;5059080;28;20235;-63
2023/12/29 12:17:52;;;;;;;1.05;0.55;;;;;;;;;;5064599;28;20216;-63
2023/12/29 12:20:20;;;;;;;0.68;0.68;;;;;;;;;;5057879;28;20251;-63
2023/12/29 12:22:50;;;;;;;0.80;0.80;;;;;;;;;;5060041;28;20360;-63
2023/12/29 12:25:16;;;;;;;0.68;0.68;;;;;;;;;;5055793;28;20221;-62
2023/12/29 12:27:43;;;;;;;0.63;0.63;;;;;;;;;;5057721;28;20212;-62
2023/12/29 12:30:10;;;;;;;1.13;1.13;;;;;;;;;;5066138;28;20217;-62
2023/12/29 12:32:36;;;;;;;0.60;0.60;;;;;;;;;;5061008;28;20590;-64
2023/12/29 12:35:03;;;;;;;0.77;0.77;;;;;;;;;;5060611;28;20224;-64
2023/12/29 12:37:31;;;;;;;0.80;0.80;;;;;;;;;;5063425;28;20208;-65
2023/12/29 12:39:57;;;;;;;0.65;0.65;;;;;;;;;;5062851;28;20213;-65
2023/12/29 12:42:24;;;;;;;0.93;0.65;;;;;;;;;;5073195;28;20254;-64
2023/12/29 12:44:55;;;;;;;0.80;0.80;;;;;;;;;;5067358;28;20208;-64
2023/12/29 12:47:25;;;;;;;1.10;0.88;;;;;;;;;;5062832;28;20193;-64
2023/12/29 12:49:51;;;;;;;1.50;0.60;;;;;;;;;;5063007;28;20308;-64
2023/12/29 12:52:17;;;;;;;0.85;0.85;;;;;;;;;;5065203;28;20331;-64
2023/12/29 12:54:45;;;;;;;0.70;0.70;;;;;;;;;;5066046;28;20307;-64
2023/12/29 12:57:11;;;;;;;1.65;0.80;;;;;;;;;;5064544;28;20215;-64
2023/12/29 12:59:38;;;;;;;0.63;0.63;;;;;;;;;;5062503;28;20630;-64
2023/12/29 13:02:05;;;;;;;0.90;0.90;;;;;;;;;;5063034;28;20197;-64
2023/12/29 13:04:31;;;;;;;0.98;0.90;;;;;;;;;;5065929;28;20251;-64
2023/12/29 13:06:58;;;;;;;1.48;0.77;;;;;;;;;;5066023;28;20219;-64
2023/12/29 13:09:24;;;;;;;0.77;0.77;;;;;;;;;;5062358;28;20201;-64
2023/12/29 13:11:51;;;;;;;1.27;0.80;;;;;;;;;;5062145;28;20255;-64
2023/12/29 13:14:21;;;;;;;0.70;0.70;;;;;;;;;;5064224;28;20658;-64
2023/12/29 13:16:48;;;;;;;0.73;0.73;;;;;;;;;;5065855;28;20220;-64
2023/12/29 13:19:19;;;;;;;0.70;0.70;;;;;;;;;;5064294;28;20239;-64
2023/12/29 13:21:46;;;;;;;0.60;0.60;;;;;;;;;;5062252;28;20288;-64
2023/12/29 13:24:15;;;;;;;1.13;1.02;;;;;;;;;;5063291;28;20205;-64
2023/12/29 13:26:42;;;;;;;0.98;0.60;;;;;;;;;;5065587;28;20225;-64
2023/12/29 13:29:09;;;;;;;0.70;0.70;;;;;;;;;;5064892;28;20216;-64
2023/12/29 13:31:36;;;;;;;1.05;0.80;;;;;;;;;;5061764;28;20217;-64
2023/12/29 13:34:05;;;;;;;0.63;0.63;;;;;;;;;;5069801;28;20208;-64
2023/12/29 13:36:36;;;;;;;0.60;0.60;;;;;;;;;;5061815;28;20217;-64
2023/12/29 13:39:06;;;;;;;1.70;0.80;;;;;;;;;;5061696;28;20251;-64
2023/12/29 13:41:33;;;;;;;0.80;0.80;;;;;;;;;;5061830;28;20189;-64
2023/12/29 13:44:00;;;;;;;1.15;1.10;;;;;;;;;;5061641;28;20278;-64
2023/12/29 13:46:28;;;;;;;0.80;0.80;;;;;;;;;;5069844;28;20221;-64
2023/12/29 13:48:55;;;;;;;0.82;0.82;;;;;;;;;;5061602;28;20193;-64
2023/12/29 13:51:23;;;;;;;0.90;0.90;;;;;;;;;;5063241;28;20213;-64
2023/12/29 13:53:49;;;;;;;0.90;0.90;;;;;;;;;;5065098;28;20196;-64
2023/12/29 13:56:16;;;;;;;0.70;0.70;;;;;;;;;;5063538;28;20220;-64
2023/12/29 13:58:42;;;;;;;0.90;0.90;;;;;;;;;;5061546;28;20271;-64
2023/12/29 14:01:09;;;;;;;0.93;0.90;;;;;;;;;;5069539;28;20200;-64
2023/12/29 14:03:41;;;;;;;1.40;0.80;;;;;;;;;;5065222;28;20737;-64
2023/12/29 14:06:08;;;;;;;0.70;0.70;;;;;;;;;;5064283;28;20270;-64
2023/12/29 14:08:39;;;;;;;0.60;0.60;;;;;;;;;;5061499;28;20246;-64
2023/12/29 14:11:07;;;;;;;0.80;0.80;;;;;;;;;;5068955;28;20213;-64
2023/12/29 14:13:33;;;;;;;0.80;0.80;;;;;;;;;;5064713;28;20625;-64
2023/12/29 14:16:00;;;;;;;1.30;0.70;;;;;;;;;;5064228;28;20227;-64
2023/12/29 14:18:33;;;;;;;0.70;0.70;;;;;;;;;;5061959;28;20204;-64
2023/12/29 14:21:00;;;;;;;0.70;0.70;;;;;;;;;;5059930;28;20653;-64
2023/12/29 14:23:27;;;;;;;1.02;0.90;;;;;;;;;;5069286;28;20207;-64
2023/12/29 14:25:53;;;;;;;1.05;0.80;;;;;;;;;;5066731;28;20216;-64
2023/12/29 14:28:20;;;;;;;1.20;1.10;;;;;;;;;;5062874;28;20193;-64
2023/12/29 14:30:47;;;;;;;2.60;1.00;;;;;;;;;;5060558;28;20595;-64
2023/12/29 14:33:13;;;;;;;1.75;0.90;;;;;;;;;;5061017;28;20213;-64
2023/12/29 14:35:40;;;;;;;0.75;0.75;;;;;;;;;;5063812;28;20642;-64
2023/12/29 14:38:07;;;;;;;0.80;0.80;;;;;;;;;;5064196;28;20662;-65
2023/12/29 14:40:34;;;;;;;0.90;0.90;;;;;;;;;;5060998;28;20193;-64
2023/12/29 14:43:00;;;;;;;1.10;1.10;;;;;;;;;;5060777;28;20201;-64